Time;durP1;ratioP1;P1;durP2;ratioP2;P2;SDS_P1;SDS_P2;PMS_P1;PMS_P2;Temp;Humidity;BMP_temperature;BMP_pressure;BME280_temperature;BME280_humidity;BME280_pressure;Samples;Min_cycle;Max_cycle;Signal;HPM_P1;HPM_P2
2021/06/30 00:02:14;;;;;;;2.60;1.90;;;17.50;91.50;;;17.35;72.88;94432.31;5151245;27;20609;-88
2021/06/30 00:04:40;;;;;;;2.03;1.88;;;17.40;91.40;;;17.24;72.63;94425.28;5092176;28;20269;-87
2021/06/30 00:07:12;;;;;;;2.30;2.10;;;17.40;91.40;;;17.31;73.10;94451.59;5070269;28;20603;-87
2021/06/30 00:09:39;;;;;;;2.70;2.50;;;17.40;91.50;;;17.25;73.12;94456.81;5084507;28;20231;-87
2021/06/30 00:12:06;;;;;;;2.40;2.20;;;17.40;91.50;;;17.10;73.19;94454.78;5082478;28;20692;-87
2021/06/30 00:14:33;;;;;;;2.40;2.20;;;17.30;91.40;;;17.18;73.14;94463.34;5055405;28;20227;-86
2021/06/30 00:17:07;;;;;;;2.70;2.47;;;17.30;91.50;;;17.14;73.36;94473.66;4992074;28;20228;-87
2021/06/30 00:19:55;;;;;;;2.75;2.25;;;17.20;91.50;;;17.08;73.63;94464.03;5138158;27;20635;-88
2021/06/30 00:22:22;;;;;;;2.65;2.45;;;17.20;91.60;;;17.02;73.67;94472.94;5109496;28;20189;-88
2021/06/30 00:24:48;;;;;;;3.00;2.50;;;17.10;91.50;;;17.02;73.59;94459.69;5085784;28;20228;-87
2021/06/30 00:27:16;;;;;;;3.78;3.47;;;17.10;91.60;;;17.01;73.96;94460.75;5085227;28;20259;-87
2021/06/30 00:29:42;;;;;;;3.25;2.95;;;17.10;91.70;;;17.01;74.03;94461.53;5045481;28;20226;-88
2021/06/30 00:32:09;;;;;;;3.17;2.88;;;17.00;91.80;;;17.00;74.27;94467.06;4998369;28;20227;-88
2021/06/30 00:34:41;;;;;;;4.07;3.13;;;17.00;91.80;;;17.01;73.85;94466.03;4940636;28;20231;-88
2021/06/30 00:37:12;;;;;;;4.50;3.38;;;17.00;91.90;;;16.99;73.80;94481.38;4727755;29;20255;-87
2021/06/30 00:41:22;;;;;;;3.85;3.30;;;17.00;91.80;;;16.88;73.75;94478.53;5151433;27;20609;-88
2021/06/30 00:43:54;;;;;;;3.38;3.08;;;17.00;91.70;;;16.87;73.63;94482.22;5069885;28;20221;-86
2021/06/30 00:46:31;;;;;;;4.70;3.50;;;17.00;91.70;;;16.83;73.62;94478.44;5082513;28;20256;-87
2021/06/30 00:48:58;;;;;;;4.03;3.63;;;16.90;91.90;;;16.78;74.06;94484.50;5048917;28;20230;-86
2021/06/30 00:51:26;;;;;;;4.35;3.47;;;16.90;91.90;;;16.78;73.67;94491.63;5043686;28;20202;-88
2021/06/30 00:53:54;;;;;;;3.80;3.50;;;16.90;91.90;;;16.78;74.03;94483.66;5009504;28;20221;-87
2021/06/30 00:56:28;;;;;;;4.75;3.50;;;16.90;91.90;;;16.68;74.01;94478.22;4886161;29;20283;-87
2021/06/30 00:59:01;;;;;;;3.60;3.20;;;16.80;91.90;;;16.76;74.09;94496.34;4721896;29;20236;-87
2021/06/30 01:01:40;;;;;;;3.53;3.22;;;16.80;91.90;;;16.74;73.72;94491.28;5151421;27;20649;-88
2021/06/30 01:04:07;;;;;;;3.85;3.28;;;16.80;91.90;;;16.70;74.01;94486.72;5112976;27;20243;-88
2021/06/30 01:06:38;;;;;;;3.85;3.40;;;16.80;91.90;;;16.64;73.91;94477.91;5064957;28;20261;-88
2021/06/30 01:09:11;;;;;;;5.18;3.60;;;16.70;91.80;;;16.63;73.74;94468.34;5026194;28;20235;-87
2021/06/30 01:11:37;;;;;;;3.60;3.30;;;16.70;91.80;;;16.60;73.73;94461.69;5005743;28;20209;-87
2021/06/30 01:14:04;;;;;;;3.95;3.55;;;16.70;91.80;;;16.57;73.81;94464.00;4985837;28;20217;-88
2021/06/30 01:16:31;;;;;;;3.67;3.38;;;16.60;91.70;;;16.54;73.75;94470.59;4925214;28;20208;-86
2021/06/30 01:19:03;;;;;;;4.05;3.72;;;16.60;91.80;;;16.44;73.59;94455.34;4855503;28;22261;-87
2021/06/30 01:21:41;;;;;;;5.95;3.95;;;16.60;91.80;;;16.44;73.90;94450.06;5142400;27;20384;-88
2021/06/30 01:24:07;;;;;;;6.88;3.47;;;16.60;91.80;;;16.45;73.89;94443.72;5090131;28;20733;-88
2021/06/30 01:26:34;;;;;;;5.43;3.70;;;16.50;91.80;;;16.43;73.65;94443.16;5107929;28;20625;-87
2021/06/30 01:29:05;;;;;;;3.92;3.60;;;16.50;91.80;;;16.41;73.70;94447.88;5104617;28;20230;-87
2021/06/30 01:31:31;;;;;;;3.90;3.35;;;16.50;91.80;;;16.37;73.94;94457.34;5059193;28;20650;-87
2021/06/30 01:34:03;;;;;;;3.83;3.53;;;16.50;91.80;;;16.32;73.71;94449.31;4974572;28;20230;-87
2021/06/30 01:36:51;;;;;;;3.80;3.50;;;16.40;91.80;;;16.37;73.62;94461.81;4945640;28;20203;-88
2021/06/30 01:39:20;;;;;;;3.67;3.38;;;16.40;91.80;;;16.37;73.98;94457.34;4625151;29;20263;-87
2021/06/30 01:41:54;;;;;;;3.63;3.25;;;16.40;91.80;;;16.35;73.74;94458.63;5138331;27;20400;-87
2021/06/30 01:44:21;;;;;;;4.78;2.95;;;16.40;91.80;;;16.32;73.87;94450.13;5100736;28;20225;-87
2021/06/30 01:46:48;;;;;;;3.60;3.30;;;16.40;91.80;;;16.29;73.64;94447.94;5072524;28;20667;-87
2021/06/30 01:49:21;;;;;;;3.28;2.97;;;16.40;91.80;;;16.16;73.62;94430.53;5064216;28;20234;-86
2021/06/30 01:51:47;;;;;;;4.00;3.35;;;16.30;91.80;;;16.14;73.71;94423.88;5058882;28;20234;-87
2021/06/30 01:54:16;;;;;;;3.45;3.10;;;16.30;91.70;;;16.23;73.67;94451.53;5016404;28;20229;-86
2021/06/30 01:56:49;;;;;;;4.20;2.95;;;16.30;91.80;;;16.17;74.03;94455.97;5003278;28;20291;-88
2021/06/30 01:59:35;;;;;;;3.50;3.20;;;16.30;91.70;;;16.19;73.98;94453.06;5137227;27;20638;-88
2021/06/30 02:02:07;;;;;;;4.72;3.15;;;16.30;91.80;;;16.13;73.46;94446.88;5078004;28;20203;-87
2021/06/30 02:04:33;;;;;;;3.30;2.97;;;16.20;91.70;;;16.12;73.85;94455.06;5052725;28;20254;-88
2021/06/30 02:07:00;;;;;;;4.03;2.97;;;16.30;91.80;;;16.09;73.96;94444.97;5003314;28;20257;-87
2021/06/30 02:09:26;;;;;;;3.63;3.33;;;16.20;91.70;;;15.98;73.95;94422.81;4991847;28;20245;-88
2021/06/30 02:11:59;;;;;;;2.95;2.70;;;16.20;91.70;;;16.06;74.07;94433.00;4875144;29;20270;-87
2021/06/30 02:14:26;;;;;;;3.63;2.85;;;16.10;91.70;;;16.02;74.28;94431.88;4854656;29;20241;-86
2021/06/30 02:16:53;;;;;;;3.28;3.03;;;16.20;91.70;;;16.02;73.86;94441.66;4705460;29;20298;-87
2021/06/30 02:19:31;;;;;;;3.78;3.22;;;16.10;91.70;;;15.98;73.98;94438.69;5141561;27;20347;-87
2021/06/30 02:22:03;;;;;;;4.55;3.22;;;16.20;91.90;;;15.98;73.98;94436.81;5070101;28;20208;-88
2021/06/30 02:24:34;;;;;;;3.30;3.03;;;16.10;91.80;;;15.98;73.99;94439.47;5071028;28;20283;-87
2021/06/30 02:27:01;;;;;;;3.15;2.85;;;16.00;91.80;;;15.97;74.16;94437.88;5040719;28;20604;-88
2021/06/30 02:29:27;;;;;;;3.60;3.30;;;16.10;91.90;;;15.95;73.89;94447.91;5071991;28;20226;-88
2021/06/30 02:31:54;;;;;;;4.28;3.17;;;16.00;91.80;;;15.93;73.91;94449.97;5038707;28;20210;-87
2021/06/30 02:34:25;;;;;;;2.83;2.63;;;16.00;91.80;;;15.88;74.02;94441.94;4994207;28;20265;-88
2021/06/30 02:36:52;;;;;;;4.32;3.25;;;16.00;91.80;;;15.90;74.05;94447.00;4907049;28;20664;-86
2021/06/30 02:41:52;;;;;;;3.30;3.00;;;16.00;91.90;;;15.87;74.17;94445.63;5151416;27;20363;-88
2021/06/30 02:44:19;;;;;;;5.43;3.50;;;15.90;91.80;;;15.87;74.19;94444.81;5109887;28;20709;-87
2021/06/30 02:46:51;;;;;;;3.40;3.10;;;15.90;91.80;;;15.84;74.07;94449.56;5066888;28;20210;-88
2021/06/30 02:49:22;;;;;;;3.78;3.40;;;15.90;91.80;;;15.82;74.02;94448.16;5015832;28;20295;-87
2021/06/30 02:51:49;;;;;;;3.50;3.20;;;15.90;91.90;;;15.80;74.15;94447.56;4989964;28;20200;-88
2021/06/30 02:54:20;;;;;;;2.88;2.60;;;15.90;91.90;;;15.78;74.27;94441.72;4965087;28;20226;-88
2021/06/30 02:56:52;;;;;;;4.78;2.90;;;15.90;91.80;;;15.77;74.08;94450.69;4749275;29;20209;-88
2021/06/30 02:59:18;;;;;;;3.22;2.92;;;15.90;91.90;;;15.76;74.38;94454.34;4337195;30;20245;-87
2021/06/30 03:01:51;;;;;;;2.50;2.30;;;15.90;91.90;;;15.73;74.31;94452.19;5137585;27;20825;-87
2021/06/30 03:04:18;;;;;;;3.85;2.58;;;15.90;92.00;;;15.74;74.20;94445.88;5089174;28;20256;-87
2021/06/30 03:06:44;;;;;;;2.90;2.70;;;15.80;92.00;;;15.66;74.44;94444.38;5084387;28;20214;-87
2021/06/30 03:09:11;;;;;;;2.80;2.60;;;15.80;92.00;;;15.75;74.32;94452.78;5022282;28;20228;-86
2021/06/30 03:11:39;;;;;;;2.70;2.50;;;15.80;92.00;;;15.76;74.42;94459.66;5016838;28;20213;-87
2021/06/30 03:14:06;;;;;;;3.25;2.75;;;15.80;92.00;;;15.70;74.23;94445.53;4952619;28;20232;-88
2021/06/30 03:16:37;;;;;;;2.42;2.22;;;15.80;92.00;;;15.75;74.48;94450.91;4863875;29;20208;-87
2021/06/30 03:19:06;;;;;;;3.33;2.88;;;15.80;92.00;;;15.75;74.75;94458.06;4668109;30;20290;-87
2021/06/30 03:21:44;;;;;;;3.58;2.63;;;15.80;92.00;;;15.68;74.50;94448.44;5136489;27;20639;-87
2021/06/30 03:24:10;;;;;;;2.88;2.67;;;15.80;92.00;;;15.76;74.41;94464.94;5083695;28;20679;-87
2021/06/30 03:26:42;;;;;;;3.03;2.83;;;15.80;92.30;;;15.70;74.21;94456.13;5091685;28;20252;-87
2021/06/30 03:29:13;;;;;;;3.15;2.90;;;15.80;92.10;;;15.75;74.45;94473.94;5034742;28;20215;-87
2021/06/30 03:31:40;;;;;;;2.72;2.53;;;15.80;92.10;;;15.74;74.24;94475.75;5001948;28;20201;-86
2021/06/30 03:34:11;;;;;;;5.03;2.70;;;15.80;92.10;;;15.76;74.49;94483.44;4907354;28;20251;-87
2021/06/30 03:36:38;;;;;;;3.28;2.60;;;15.70;92.10;;;15.74;74.34;94469.66;4772094;29;20677;-87
2021/06/30 03:39:05;;;;;;;3.08;2.55;;;15.80;92.20;;;15.78;74.38;94473.44;4700777;30;20223;-85
2021/06/30 03:43:40;;;;;;;3.03;2.47;;;15.80;92.20;;;15.78;74.86;94476.91;5136479;27;21145;-87
2021/06/30 03:46:09;;;;;;;2.75;2.55;;;15.80;92.20;;;15.79;74.57;94467.13;5108229;28;20198;-86
2021/06/30 03:48:41;;;;;;;3.78;2.55;;;15.80;92.20;;;15.84;74.44;94477.81;5048528;28;20231;-87
2021/06/30 03:51:07;;;;;;;2.85;2.65;;;15.80;92.20;;;15.82;74.70;94462.19;5021717;28;20226;-87
2021/06/30 03:53:34;;;;;;;3.40;3.10;;;15.80;92.30;;;15.83;74.94;94463.00;4987675;28;20213;-87
2021/06/30 03:56:00;;;;;;;3.13;2.90;;;15.80;92.30;;;15.88;74.79;94460.47;4878464;29;20277;-86
2021/06/30 03:58:27;;;;;;;3.38;2.70;;;15.90;92.40;;;15.89;74.67;94455.97;4745913;29;20228;-86
2021/06/30 04:00:59;;;;;;;5.13;3.00;;;15.90;92.40;;;15.95;74.74;94455.00;4539518;30;20228;-87
2021/06/30 04:03:32;;;;;;;3.08;2.78;;;15.90;92.40;;;15.91;74.40;94448.59;5146410;27;20828;-87
2021/06/30 04:06:00;;;;;;;3.40;3.10;;;15.90;92.40;;;15.92;74.63;94448.34;5068369;28;20211;-87
2021/06/30 04:08:31;;;;;;;2.63;2.38;;;15.90;92.40;;;15.91;74.54;94444.09;4992342;28;20206;-86
2021/06/30 04:10:58;;;;;;;3.80;2.60;;;15.90;92.30;;;15.98;74.32;94468.56;5021876;28;20209;-87
2021/06/30 04:13:25;;;;;;;2.40;2.20;;;15.90;92.30;;;15.98;74.97;94455.34;5032709;28;20244;-87
2021/06/30 04:15:53;;;;;;;2.40;2.20;;;16.00;92.40;;;15.94;74.89;94448.94;5001562;28;20210;-85
2021/06/30 04:18:20;;;;;;;2.15;2.05;;;15.90;92.30;;;16.01;74.68;94464.66;4906422;29;20600;-87
2021/06/30 04:21:29;;;;;;;2.20;2.00;;;16.00;92.40;;;15.92;75.19;94451.00;5137581;27;20654;-89
2021/06/30 04:23:56;;;;;;;3.05;2.20;;;16.00;92.40;;;16.05;75.07;94465.78;5107180;28;20277;-88
2021/06/30 04:26:23;;;;;;;2.28;2.17;;;16.10;92.50;;;16.07;75.34;94471.63;5087751;28;21506;-89
2021/06/30 04:28:50;;;;;;;2.58;2.00;;;16.10;92.50;;;16.10;74.79;94468.53;5062091;28;20237;-88
2021/06/30 04:31:16;;;;;;;2.28;2.10;;;16.10;92.50;;;16.09;75.27;94466.91;5049473;28;20215;-89
2021/06/30 04:33:43;;;;;;;1.88;1.77;;;16.10;92.40;;;16.13;74.93;94473.31;4973840;28;20325;-87
2021/06/30 04:36:10;;;;;;;2.03;1.85;;;16.10;92.50;;;16.12;74.62;94470.94;4997591;28;20216;-89
2021/06/30 04:38:37;;;;;;;1.92;1.80;;;16.10;92.40;;;16.10;74.47;94462.41;4873804;29;20214;-88
2021/06/30 04:41:15;;;;;;;1.65;1.55;;;16.10;92.30;;;16.09;74.71;94468.78;5151429;27;20387;-88
2021/06/30 04:43:47;;;;;;;2.00;1.80;;;16.10;92.30;;;16.04;74.91;94469.47;5088341;28;20232;-88
2021/06/30 04:46:14;;;;;;;2.45;1.90;;;16.10;92.30;;;16.05;74.65;94465.78;5076487;28;20207;-88
2021/06/30 04:48:40;;;;;;;1.77;1.67;;;16.10;92.30;;;16.02;75.10;94466.25;5022784;28;20305;-86
2021/06/30 04:51:07;;;;;;;1.88;1.77;;;16.10;92.40;;;16.03;74.62;94467.03;5008639;28;20252;-86
2021/06/30 04:53:34;;;;;;;2.00;1.80;;;16.10;92.40;;;16.10;75.06;94486.22;4903749;28;20218;-86
2021/06/30 04:56:00;;;;;;;2.15;1.88;;;16.10;92.40;;;16.07;74.81;94494.66;4910356;28;20233;-85
2021/06/30 04:58:28;;;;;;;4.53;1.70;;;16.10;92.30;;;16.06;74.60;94487.75;4887082;29;20204;-85
2021/06/30 05:01:01;;;;;;;2.20;2.00;;;16.10;92.30;;;16.02;74.67;94478.69;5151441;27;20378;-86
2021/06/30 05:03:29;;;;;;;2.05;1.85;;;16.10;92.40;;;16.03;74.92;94491.69;5110059;27;20207;-87
2021/06/30 05:05:57;;;;;;;6.55;2.38;;;16.10;92.40;;;16.06;75.48;94495.69;5066278;28;20214;-86
2021/06/30 05:08:28;;;;;;;2.13;2.00;;;16.10;92.50;;;16.04;75.61;94489.81;5055962;28;20206;-85
2021/06/30 05:10:55;;;;;;;2.30;2.10;;;16.20;92.70;;;16.19;76.09;94495.41;5030641;28;20207;-86
2021/06/30 05:13:22;;;;;;;2.40;2.20;;;16.10;92.80;;;16.20;76.26;94482.97;4956036;28;20240;-86
2021/06/30 05:15:53;;;;;;;2.70;2.40;;;16.30;92.90;;;16.28;75.29;94491.34;4835501;29;20219;-85
2021/06/30 05:18:25;;;;;;;2.88;2.60;;;16.30;93.00;;;16.40;76.20;94493.91;4722651;30;20245;-86
2021/06/30 05:21:03;;;;;;;3.63;2.80;;;16.30;93.10;;;16.51;76.15;94499.41;5150393;27;20609;-87
2021/06/30 05:23:30;;;;;;;3.20;2.90;;;16.40;93.10;;;16.59;75.70;94505.09;5105735;28;20257;-85
2021/06/30 05:25:57;;;;;;;3.67;3.13;;;16.50;93.20;;;16.57;75.65;94498.44;5051861;28;20215;-86
2021/06/30 05:28:29;;;;;;;3.13;2.85;;;16.40;93.00;;;16.62;75.45;94488.75;5004101;28;20214;-87
2021/06/30 05:31:00;;;;;;;3.30;3.00;;;16.50;93.10;;;16.74;75.78;94498.44;4938838;28;20206;-87
2021/06/30 05:33:28;;;;;;;3.40;3.10;;;16.60;93.10;;;16.81;75.93;94496.44;4852039;29;20716;-86
2021/06/30 05:35:55;;;;;;;3.40;2.90;;;16.60;93.10;;;16.87;75.91;94505.25;4698386;30;20802;-85
2021/06/30 05:38:23;;;;;;;4.05;3.58;;;16.70;93.20;;;16.85;74.96;94488.81;4504438;30;20228;-87
2021/06/30 05:41:01;;;;;;;3.85;3.50;;;16.70;93.30;;;16.94;75.92;94509.41;5139932;27;20306;-87
2021/06/30 05:43:29;;;;;;;3.97;3.60;;;16.80;93.20;;;17.03;75.59;94508.97;5126776;27;20200;-87
2021/06/30 05:45:55;;;;;;;4.10;3.70;;;16.80;93.20;;;17.11;75.98;94525.28;5101745;28;20220;-87
2021/06/30 05:48:22;;;;;;;3.78;3.47;;;16.90;93.20;;;17.17;76.17;94531.44;5072177;28;20210;-86
2021/06/30 05:50:49;;;;;;;4.78;4.00;;;16.90;93.30;;;17.24;76.10;94532.06;5030302;28;20204;-87
2021/06/30 05:53:21;;;;;;;4.93;4.53;;;17.00;93.30;;;17.32;75.25;94538.03;4967970;28;20203;-86
2021/06/30 05:55:47;;;;;;;4.70;4.30;;;17.00;93.30;;;17.41;76.06;94534.72;4908150;29;20672;-87
2021/06/30 05:58:19;;;;;;;4.90;4.40;;;17.20;93.50;;;17.51;75.70;94533.25;4674348;29;20759;-88
2021/06/30 06:00:56;;;;;;;5.25;4.75;;;17.30;93.50;;;17.57;76.07;94546.31;5136720;27;20394;-88
2021/06/30 06:03:23;;;;;;;5.18;4.45;;;17.40;93.40;;;17.60;75.95;94548.50;5089724;28;20210;-87
2021/06/30 06:05:54;;;;;;;5.00;4.60;;;17.40;93.30;;;17.54;75.05;94530.09;5097806;28;20274;-87
2021/06/30 06:08:21;;;;;;;4.97;4.57;;;17.40;93.20;;;17.62;75.79;94550.91;5083469;28;20241;-87
2021/06/30 06:10:47;;;;;;;5.72;4.38;;;17.50;93.30;;;17.69;76.31;94553.38;5031198;28;20220;-86
2021/06/30 06:13:18;;;;;;;5.97;4.47;;;17.50;93.40;;;17.76;76.38;94559.31;4942787;28;20223;-87
2021/06/30 06:15:45;;;;;;;5.43;4.93;;;17.60;93.50;;;17.89;75.73;94555.50;4812633;29;20227;-86
2021/06/30 06:18:11;;;;;;;5.57;5.00;;;17.60;93.60;;;17.90;76.00;94552.59;4529575;30;20234;-88
2021/06/30 06:20:49;;;;;;;5.05;4.65;;;17.70;93.50;;;18.02;76.10;94560.47;5140740;27;20311;-87
2021/06/30 06:23:15;;;;;;;5.72;5.15;;;17.80;93.70;;;18.17;76.44;94556.38;5111462;27;20196;-88
2021/06/30 06:25:42;;;;;;;5.50;5.00;;;17.80;93.80;;;18.36;77.25;94557.66;5104265;28;20241;-88
2021/06/30 06:28:08;;;;;;;5.60;5.10;;;17.90;94.10;;;18.55;77.26;94558.13;5086996;28;20193;-87
2021/06/30 06:30:40;;;;;;;5.88;5.38;;;18.10;94.30;;;18.68;76.36;94542.84;5050286;28;20624;-88
2021/06/30 06:33:06;;;;;;;5.90;5.32;;;18.20;94.20;;;18.80;75.04;94551.44;4971956;28;20289;-87
2021/06/30 06:35:33;;;;;;;8.70;5.28;;;18.30;93.90;;;18.82;74.88;94538.72;4854138;29;20272;-87
2021/06/30 06:38:00;;;;;;;5.90;5.30;;;18.40;93.50;;;18.84;73.94;94541.09;4698796;29;20343;-87
2021/06/30 06:42:01;;;;;;;4.95;4.55;;;18.50;93.30;;;18.80;74.42;94548.00;5146815;27;20566;-87
2021/06/30 06:44:28;;;;;;;5.30;4.78;;;18.50;93.10;;;18.77;74.38;94549.28;5110579;27;20235;-88
2021/06/30 06:46:55;;;;;;;4.93;4.50;;;18.50;93.00;;;18.78;74.10;94539.47;5071985;28;20215;-87
2021/06/30 06:49:22;;;;;;;5.28;4.78;;;18.50;92.90;;;18.80;74.63;94540.03;5038348;28;20227;-86
2021/06/30 06:51:48;;;;;;;5.10;4.70;;;18.50;93.00;;;18.81;74.59;94529.13;4971394;28;20289;-87
2021/06/30 06:54:15;;;;;;;5.18;4.78;;;18.60;93.00;;;18.87;74.43;94538.75;4894276;29;20303;-87
2021/06/30 06:56:41;;;;;;;5.60;5.10;;;18.60;93.00;;;18.91;74.39;94541.72;4759119;29;20203;-86
2021/06/30 06:59:13;;;;;;;5.03;4.60;;;18.60;93.10;;;18.96;74.49;94536.47;4628966;30;20236;-87
2021/06/30 07:03:11;;;;;;;4.90;4.50;;;18.70;93.00;;;19.09;75.50;94537.91;5132825;27;20877;-88
2021/06/30 07:05:37;;;;;;;4.88;4.47;;;18.70;93.30;;;19.18;74.54;94546.19;5089036;28;20232;-87
2021/06/30 07:08:09;;;;;;;5.25;4.00;;;18.80;93.30;;;19.27;74.77;94538.53;5058322;28;20291;-87
2021/06/30 07:10:40;;;;;;;5.22;4.72;;;18.80;93.40;;;19.34;73.83;94536.47;5003147;28;20224;-88
2021/06/30 07:13:07;;;;;;;5.20;4.80;;;18.90;93.50;;;19.46;74.24;94544.25;4972838;28;20267;-86
2021/06/30 07:15:41;;;;;;;4.07;3.78;;;19.10;93.40;;;19.57;74.83;94547.78;4913085;28;20293;-86
2021/06/30 07:18:14;;;;;;;4.80;4.32;;;19.10;93.50;;;19.69;75.21;94535.06;4813058;29;20257;-84
2021/06/30 07:20:46;;;;;;;5.20;4.70;;;19.20;93.30;;;19.84;74.88;94561.00;4508154;30;20268;-83
2021/06/30 07:23:24;;;;;;;4.13;3.83;;;19.30;93.80;;;19.90;73.44;94529.88;5118968;27;20308;-85
2021/06/30 07:25:57;;;;;;;5.55;3.92;;;19.40;93.50;;;20.10;74.44;94545.13;5081030;28;20589;-85
2021/06/30 07:28:25;;;;;;;6.32;3.95;;;19.50;93.50;;;20.21;73.24;94545.97;5044998;28;20208;-84
2021/06/30 07:30:52;;;;;;;4.95;3.95;;;19.60;93.30;;;20.31;73.64;94540.66;5057081;28;20209;-85
2021/06/30 07:33:19;;;;;;;4.28;3.85;;;19.70;93.40;;;20.40;74.70;94544.41;4964161;28;20206;-86
2021/06/30 07:35:46;;;;;;;4.30;3.90;;;19.80;93.60;;;20.54;72.79;94544.69;4941000;28;20268;-86
2021/06/30 07:38:17;;;;;;;4.15;3.75;;;19.90;93.40;;;20.68;73.11;94553.00;4892509;29;20213;-85
2021/06/30 07:40:48;;;;;;;4.22;3.83;;;20.10;93.50;;;20.72;73.55;94538.09;4671325;29;20242;-86
2021/06/30 07:43:26;;;;;;;3.97;3.67;;;20.10;93.30;;;20.85;72.04;94547.47;5146393;27;20307;-86
2021/06/30 07:45:52;;;;;;;3.60;3.30;;;20.30;93.10;;;20.88;70.35;94546.13;5089710;28;20201;-85
2021/06/30 07:48:19;;;;;;;3.63;3.40;;;20.30;92.40;;;20.94;71.56;94553.06;5102072;28;20237;-84
2021/06/30 07:50:45;;;;;;;3.80;3.47;;;20.40;92.50;;;21.01;71.98;94558.13;5087901;28;20228;-84
2021/06/30 07:53:13;;;;;;;3.90;3.60;;;20.50;92.40;;;21.02;71.67;94554.38;5033970;28;20212;-86
2021/06/30 07:55:40;;;;;;;3.70;3.40;;;20.50;92.20;;;21.08;71.96;94545.31;4948533;28;20230;-85
2021/06/30 07:58:06;;;;;;;3.50;3.20;;;20.60;92.20;;;21.25;73.43;94553.03;4866110;29;20245;-84
2021/06/30 08:00:33;;;;;;;3.80;3.50;;;20.60;92.40;;;21.36;72.35;94556.50;4765056;29;20242;-85
2021/06/30 08:05:22;;;;;;;4.20;3.80;;;20.80;92.40;;;21.47;70.98;94557.28;5121935;27;21182;-85
2021/06/30 08:07:48;;;;;;;4.03;3.63;;;20.90;91.70;;;21.53;72.02;94566.91;5081092;28;20239;-85
2021/06/30 08:10:15;;;;;;;3.83;3.53;;;21.00;91.80;;;21.52;71.39;94554.63;5051188;28;20241;-84
2021/06/30 08:12:42;;;;;;;3.85;3.55;;;21.00;91.50;;;21.50;71.53;94562.13;5050262;28;20199;-85
2021/06/30 08:15:10;;;;;;;3.92;3.63;;;21.10;91.20;;;21.46;70.33;94563.69;5012896;28;20598;-85
2021/06/30 08:17:38;;;;;;;4.10;3.80;;;21.10;90.80;;;21.43;70.69;94555.19;4942956;28;20211;-86
2021/06/30 08:20:06;;;;;;;4.15;3.78;;;21.10;90.80;;;21.47;71.70;94562.63;4938321;28;20757;-85
2021/06/30 08:22:33;;;;;;;4.25;3.85;;;21.10;91.00;;;21.50;70.71;94572.78;4831481;29;20214;-85
2021/06/30 08:27:33;;;;;;;4.30;3.90;;;21.10;90.80;;;21.55;70.46;94581.56;5148594;27;20658;-85
2021/06/30 08:30:01;;;;;;;4.32;3.97;;;21.20;90.80;;;21.57;70.99;94581.34;5105314;27;20247;-84
2021/06/30 08:32:28;;;;;;;4.10;3.80;;;21.20;90.50;;;21.58;69.41;94591.75;5084214;28;20234;-84
2021/06/30 08:34:55;;;;;;;4.07;3.67;;;21.20;90.20;;;21.64;70.11;94592.53;5042773;28;20223;-86
2021/06/30 08:37:22;;;;;;;3.83;3.53;;;21.30;90.20;;;21.72;70.33;94597.31;4967346;28;20219;-83
2021/06/30 08:39:54;;;;;;;3.83;3.53;;;21.40;90.10;;;21.81;69.98;94596.78;4960071;28;20580;-85
2021/06/30 08:42:21;;;;;;;4.25;3.95;;;21.40;90.10;;;21.94;69.50;94606.09;4855434;29;20611;-83
2021/06/30 08:44:48;;;;;;;4.25;3.85;;;21.50;90.40;;;22.02;69.16;94595.66;4754036;29;20252;-85
2021/06/30 08:49:26;;;;;;;3.83;3.53;;;21.50;90.00;;;22.29;70.25;94601.69;5129755;27;20566;-87
2021/06/30 08:51:55;;;;;;;4.63;4.15;;;21.70;90.10;;;22.55;70.87;94589.06;5074678;28;20209;-86
2021/06/30 08:54:22;;;;;;;4.63;4.22;;;21.90;90.40;;;22.84;70.30;94589.16;5041254;28;20221;-86
2021/06/30 08:56:50;;;;;;;4.50;4.10;;;22.00;90.50;;;23.07;69.15;94588.72;5005158;28;20304;-86
2021/06/30 08:59:17;;;;;;;4.90;4.40;;;22.20;90.10;;;23.27;69.03;94595.84;4979408;28;20234;-86
2021/06/30 09:01:45;;;;;;;5.22;4.82;;;22.40;90.10;;;23.37;64.79;94600.31;4875672;29;20289;-85
2021/06/30 09:04:13;;;;;;;5.30;4.80;;;22.60;89.20;;;23.43;65.62;94591.16;4727019;29;20240;-85
2021/06/30 09:06:41;;;;;;;4.82;4.43;;;22.70;86.40;;;23.54;66.85;94581.94;4585297;30;20243;-84
2021/06/30 09:09:15;;;;;;;5.43;4.93;;;22.80;86.80;;;23.60;65.80;94586.19;5132618;27;20323;-87
2021/06/30 09:11:51;;;;;;;4.70;4.30;;;22.90;86.10;;;23.67;65.42;94583.97;5110417;27;20200;-86
2021/06/30 09:14:37;;;;;;;5.05;4.65;;;23.00;85.40;;;23.74;63.91;94578.28;5110439;28;20691;-87
2021/06/30 09:17:17;;;;;;;4.95;4.55;;;23.10;83.90;;;23.79;64.35;94580.91;5033060;28;20210;-87
2021/06/30 09:20:08;;;;;;;5.22;4.80;;;23.20;84.00;;;23.81;63.77;94575.25;4952675;28;20306;-87
2021/06/30 09:22:46;;;;;;;4.90;4.55;;;23.30;84.10;;;23.87;62.27;94576.03;4827399;29;20300;-84
2021/06/30 09:25:39;;;;;;;5.25;4.85;;;23.40;81.70;;;23.92;61.62;94582.13;4587997;30;20240;-86
2021/06/30 09:30:54;;;;;;;4.85;4.45;;;23.40;82.50;;;24.11;57.16;94576.84;5103144;27;20815;-87
2021/06/30 09:33:20;;;;;;;4.93;4.30;;;23.50;79.10;;;24.19;54.16;94588.00;5067557;28;20208;-85
2021/06/30 09:35:48;;;;;;;4.80;4.40;;;23.60;76.90;;;24.34;54.12;94592.38;5046100;28;20710;-86
2021/06/30 09:38:31;;;;;;;5.18;4.68;;;23.70;77.40;;;24.46;54.08;94577.50;5027036;28;20219;-85
2021/06/30 09:40:58;;;;;;;4.53;4.22;;;23.80;76.70;;;24.68;55.82;94588.78;4975061;28;20251;-86
2021/06/30 09:43:28;;;;;;;4.82;4.20;;;23.90;77.60;;;24.76;52.40;94586.22;4905343;28;20312;-87
2021/06/30 09:45:58;;;;;;;3.95;3.60;;;24.00;74.70;;;24.84;53.87;94582.13;4754275;29;20685;-87
2021/06/30 09:48:40;;;;;;;4.25;3.95;;;24.10;75.00;;;24.83;52.37;94590.44;4482455;31;20247;-86
2021/06/30 09:51:20;;;;;;;4.35;3.97;;;24.20;74.40;;;24.87;52.83;94584.22;5131229;27;20320;-87
2021/06/30 09:53:47;;;;;;;3.80;3.50;;;24.30;74.20;;;24.83;51.23;94590.44;5078612;28;20230;-86
2021/06/30 09:56:41;;;;;;;3.80;3.50;;;24.40;73.30;;;24.80;52.61;94604.44;5055733;28;20216;-87
2021/06/30 09:59:14;;;;;;;3.95;3.65;;;24.40;74.00;;;24.73;51.34;94604.78;5008128;28;20246;-86
2021/06/30 10:01:43;;;;;;;3.72;3.38;;;24.40;72.70;;;24.68;51.95;94594.94;4918360;28;20249;-86
2021/06/30 10:04:29;;;;;;;3.55;3.25;;;24.40;72.40;;;24.67;52.93;94598.72;4821788;29;20271;-86
2021/06/30 10:07:01;;;;;;;3.60;3.08;;;24.30;73.50;;;24.71;52.76;94594.34;4710229;30;20226;-87
2021/06/30 10:09:47;;;;;;;3.17;2.88;;;24.40;73.90;;;24.77;53.05;94601.25;5127738;27;20636;-86
2021/06/30 10:12:23;;;;;;;3.30;3.00;;;24.40;73.20;;;24.87;53.48;94604.88;5034091;28;20215;-87
2021/06/30 10:14:50;;;;;;;3.55;2.63;;;24.40;73.40;;;24.91;53.33;94595.16;5018273;28;20222;-85
2021/06/30 10:17:20;;;;;;;2.80;2.60;;;24.40;73.60;;;25.02;52.20;94595.81;5016518;28;20217;-86
2021/06/30 10:19:48;;;;;;;2.80;2.60;;;24.50;73.50;;;25.16;52.68;94599.34;4929551;28;20272;-87
2021/06/30 10:22:22;;;;;;;2.33;2.15;;;24.60;73.40;;;25.25;50.56;94589.56;4922198;28;20244;-88
2021/06/30 10:24:51;;;;;;;2.08;1.98;;;24.70;71.80;;;25.39;51.17;94588.84;4825669;29;20254;-87
2021/06/30 10:27:19;;;;;;;2.00;1.90;;;24.80;72.20;;;25.44;49.94;94585.25;4756579;29;20222;-87
2021/06/30 10:32:14;;;;;;;2.03;1.92;;;24.80;71.10;;;25.59;49.79;94576.16;5129466;27;20801;-87
2021/06/30 10:34:48;;;;;;;1.90;1.80;;;25.00;71.40;;;25.68;51.25;94572.50;5092034;28;20222;-87
2021/06/30 10:37:19;;;;;;;1.92;1.70;;;25.10;71.60;;;25.80;50.97;94563.94;5125636;27;20213;-87
2021/06/30 10:39:50;;;;;;;1.38;1.38;;;25.20;71.60;;;25.79;45.77;94581.13;5106689;28;20238;-86
2021/06/30 10:42:36;;;;;;;1.58;1.48;;;25.30;68.70;;;25.67;45.64;94576.25;5084993;28;20216;-88
2021/06/30 10:45:17;;;;;;;1.48;1.38;;;25.30;67.80;;;25.55;47.24;94586.69;5000417;28;20228;-87
2021/06/30 10:47:55;;;;;;;1.90;1.80;;;25.30;67.50;;;25.50;48.53;94584.88;4914608;29;20200;-87
2021/06/30 10:53:30;;;;;;;2.03;1.70;;;25.20;69.60;;;25.55;49.56;94575.94;5142585;27;20938;-86
2021/06/30 10:56:04;;;;;;;1.60;1.50;;;25.20;69.40;;;25.65;50.13;94570.38;5067149;28;20204;-87
2021/06/30 10:58:32;;;;;;;1.73;1.63;;;25.30;69.20;;;25.71;49.58;94569.19;5089119;28;20490;-87